Time;durP1;ratioP1;P1;durP2;ratioP2;P2;SDS_P1;SDS_P2;PMS_P1;PMS_P2;Temp;Humidity;BMP_temperature;BMP_pressure;BME280_temperature;BME280_humidity;BME280_pressure;Samples;Min_cycle;Max_cycle;Signal;HPM_P1;HPM_P2
2023/10/17 00:01:33;;;;;;;7.00;4.10;;;;;;;5.99;71.33;100246.49;106866;1256;62952;-73
2023/10/17 00:06:47;;;;;;;5.50;4.10;;;;;;;5.96;71.33;100251.40;106965;1254;60309;-73
2023/10/17 00:09:26;;;;;;;6.30;3.90;;;;;;;5.95;71.25;100247.13;106985;1254;64910;-73
2023/10/17 00:14:27;;;;;;;7.80;4.60;;;;;;;5.92;71.40;100246.59;106875;1253;62573;-73
2023/10/17 00:16:55;;;;;;;6.10;4.00;;;;;;;5.89;71.43;100251.48;106897;1253;60434;-73
2023/10/17 00:19:26;;;;;;;5.80;4.00;;;;;;;5.87;71.44;100252.63;106985;1254;60481;-73
2023/10/17 00:21:54;;;;;;;5.30;3.70;;;;;;;5.87;71.47;100254.03;106890;1252;63705;-73
2023/10/17 00:24:23;;;;;;;5.00;3.60;;;;;;;5.86;71.48;100252.57;106926;1254;60469;-73
2023/10/17 00:26:51;;;;;;;4.80;3.80;;;;;;;5.84;71.63;100253.73;106777;1254;63788;-72
2023/10/17 00:29:18;;;;;;;5.20;3.40;;;;;;;5.83;71.62;100256.20;106844;1254;60414;-71
2023/10/17 00:31:46;;;;;;;7.40;3.80;;;;;;;5.83;71.54;100256.94;106831;1254;60592;-71
2023/10/17 00:34:15;;;;;;;6.20;3.90;;;;;;;5.82;71.49;100256.14;106942;1253;63639;-72
2023/10/17 00:36:49;;;;;;;5.20;3.80;;;;;;;5.80;71.55;100261.17;106925;1254;60504;-71
2023/10/17 00:44:40;;;;;;;5.90;3.60;;;;;;;5.77;71.62;100269.89;106915;1253;60375;-72
2023/10/17 00:47:09;;;;;;;5.50;3.70;;;;;;;5.76;71.66;100275.50;106923;1253;63623;-71
2023/10/17 00:49:40;;;;;;;7.60;3.70;;;;;;;5.77;71.74;100274.59;106970;1254;60386;-72
2023/10/17 00:52:17;;;;;;;6.60;3.90;;;;;;;5.79;71.80;100273.98;107016;1254;63731;-72
2023/10/17 00:54:45;;;;;;;7.30;3.80;;;;;;;5.81;71.90;100276.47;106921;1252;60475;-71
2023/10/17 00:57:15;;;;;;;5.40;3.40;;;;;;;5.83;71.88;100280.16;106959;1254;60377;-72
2023/10/17 00:59:53;;;;;;;6.60;3.50;;;;;;;5.84;71.84;100282.17;106878;1254;64976;-72
2023/10/17 01:02:22;;;;;;;6.30;4.00;;;;;;;5.86;71.81;100281.00;106948;1253;60427;-71
2023/10/17 01:04:51;;;;;;;5.60;3.60;;;;;;;5.87;71.84;100283.04;106910;1254;62610;-72
2023/10/17 01:07:29;;;;;;;5.10;3.60;;;;;;;5.87;71.84;100288.27;106940;1254;60466;-72
2023/10/17 01:10:09;;;;;;;7.80;4.70;;;;;;;5.88;71.84;100290.65;106950;1253;59375;-71
2023/10/17 01:12:50;;;;;;;7.10;4.20;;;;;;;5.90;71.87;100291.99;106923;1254;64979;-72
2023/10/17 01:15:21;;;;;;;6.10;3.80;;;;;;;5.91;71.87;100291.77;106768;1253;60501;-71
2023/10/17 01:17:54;;;;;;;7.30;4.10;;;;;;;5.93;71.75;100293.06;107013;1253;62422;-71
2023/10/17 01:20:22;;;;;;;6.60;3.90;;;;;;;5.92;71.87;100289.23;106971;1254;60466;-71
2023/10/17 01:22:55;;;;;;;7.30;4.40;;;;;;;5.92;71.82;100291.68;106990;1253;60513;-71
2023/10/17 01:25:26;;;;;;;7.00;4.10;;;;;;;5.92;71.80;100296.56;106958;1254;63688;-71
2023/10/17 01:27:54;;;;;;;7.90;4.00;;;;;;;5.93;71.75;100296.55;106950;1254;60371;-71
2023/10/17 01:30:22;;;;;;;7.00;3.90;;;;;;;5.93;71.68;100298.60;106952;1254;63745;-71
2023/10/17 01:32:51;;;;;;;5.30;3.70;;;;;;;5.94;71.62;100300.14;106892;1253;60504;-72
2023/10/17 01:35:19;;;;;;;5.00;3.60;;;;;;;5.92;71.57;100301.61;106980;1253;59119;-72
2023/10/17 01:37:47;;;;;;;6.20;3.90;;;;;;;5.91;71.52;100302.42;106989;1252;63871;-72
2023/10/17 01:40:28;;;;;;;6.40;4.00;;;;;;;5.88;71.49;100302.58;106839;1254;60508;-71
2023/10/17 01:42:59;;;;;;;5.60;4.00;;;;;;;5.84;71.52;100305.98;106999;1254;63763;-71
2023/10/17 01:45:27;;;;;;;5.90;4.10;;;;;;;5.81;71.54;100307.41;106951;1254;60442;-71
2023/10/17 01:47:58;;;;;;;6.90;4.50;;;;;;;5.78;71.58;100305.96;106996;1252;60536;-71
2023/10/17 01:50:26;;;;;;;6.60;4.50;;;;;;;5.77;71.72;100307.29;106898;1259;64924;-71
2023/10/17 01:52:54;;;;;;;7.70;4.30;;;;;;;5.77;71.76;100316.70;106969;1254;60472;-71
2023/10/17 01:55:25;;;;;;;9.30;4.80;;;;;;;5.78;71.83;100319.99;106959;1254;62478;-71
2023/10/17 01:57:59;;;;;;;8.20;4.30;;;;;;;5.77;71.87;100320.87;106893;1254;60466;-71
2023/10/17 02:03:05;;;;;;;5.90;4.20;;;;;;;5.75;71.79;100324.99;107027;1254;63873;-71
2023/10/17 02:05:36;;;;;;;6.50;4.20;;;;;;;5.74;71.77;100324.20;106916;1253;58742;-72
2023/10/17 02:08:08;;;;;;;5.60;3.90;;;;;;;5.71;71.80;100323.84;107021;1254;63720;-72
2023/10/17 02:10:36;;;;;;;6.50;3.90;;;;;;;5.69;71.79;100322.57;106956;1254;60696;-71
2023/10/17 02:13:04;;;;;;;5.60;4.00;;;;;;;5.64;71.68;100319.18;106991;1254;60379;-71
2023/10/17 02:15:34;;;;;;;7.10;4.20;;;;;;;5.60;71.69;100320.67;106995;1253;63786;-72
2023/10/17 02:18:12;;;;;;;8.20;3.80;;;;;;;5.58;71.76;100326.73;106839;1254;60438;-71
2023/10/17 02:20:52;;;;;;;7.20;4.40;;;;;;;5.55;71.80;100333.73;106909;1254;63730;-72
2023/10/17 02:23:21;;;;;;;6.60;4.50;;;;;;;5.50;71.97;100337.19;106967;1254;60565;-71
2023/10/17 02:25:50;;;;;;;6.40;4.50;;;;;;;5.45;72.09;100342.17;106972;1252;60572;-71
2023/10/17 02:28:17;;;;;;;9.50;4.50;;;;;;;5.46;72.14;100343.14;106918;1254;64940;-71
2023/10/17 02:30:45;;;;;;;7.40;4.50;;;;;;;5.46;72.12;100345.44;106913;1254;60508;-72
2023/10/17 02:33:17;;;;;;;5.80;4.20;;;;;;;5.44;72.13;100346.23;106894;1253;63718;-72
2023/10/17 02:38:48;;;;;;;6.10;4.10;;;;;;;5.43;72.31;100354.38;106738;1252;60486;-72
2023/10/17 02:41:18;;;;;;;6.80;4.50;;;;;;;5.43;72.54;100355.06;106915;1254;64942;-72
2023/10/17 02:43:46;;;;;;;6.40;4.60;;;;;;;5.43;72.60;100353.49;106778;1253;60507;-72
2023/10/17 02:46:14;;;;;;;7.40;4.60;;;;;;;5.44;72.60;100352.20;106835;1252;63802;-72
2023/10/17 02:48:42;;;;;;;7.70;4.60;;;;;;;5.45;72.61;100349.14;106996;1254;60524;-72
2023/10/17 02:53:51;;;;;;;7.50;4.20;;;;;;;5.44;72.51;100349.73;106916;1254;64953;-73
2023/10/17 02:56:19;;;;;;;6.50;4.10;;;;;;;5.43;72.54;100352.07;106913;1253;60380;-72
2023/10/17 02:58:51;;;;;;;7.30;4.70;;;;;;;5.42;72.57;100353.34;106935;1254;63717;-73
2023/10/17 03:01:18;;;;;;;9.30;4.80;;;;;;;5.41;72.56;100353.10;106837;1254;61282;-72
2023/10/17 03:03:50;;;;;;;9.40;4.80;;;;;;;5.41;72.64;100355.19;106903;1254;61256;-72
2023/10/17 03:06:19;;;;;;;9.60;5.20;;;;;;;5.40;72.65;100354.37;107460;1253;64594;-72
2023/10/17 03:08:51;;;;;;;9.20;4.70;;;;;;;5.39;72.66;100355.66;106837;1254;61324;-73
2023/10/17 03:11:47;;;;;;;7.90;4.70;;;;;;;5.40;72.70;100358.04;106918;1254;63733;-72
2023/10/17 03:14:25;;;;;;;9.00;5.00;;;;;;;5.40;72.71;100362.21;106990;1253;61372;-72
2023/10/17 03:16:54;;;;;;;6.90;4.80;;;;;;;5.39;72.70;100359.11;106934;1253;61515;-72
2023/10/17 03:19:27;;;;;;;7.30;5.20;;;;;;;5.38;72.64;100363.87;106982;1253;64528;-73
2023/10/17 03:21:58;;;;;;;8.50;4.90;;;;;;;5.36;72.70;100367.70;106875;1252;61234;-72
2023/10/17 03:24:44;;;;;;;7.00;5.00;;;;;;;5.34;72.74;100364.63;106937;1254;62599;-72
2023/10/17 03:30:05;;;;;;;7.70;5.00;;;;;;;5.34;72.92;100374.64;106914;1254;61317;-72
2023/10/17 03:32:52;;;;;;;7.90;4.90;;;;;;;5.35;72.94;100379.45;106929;1254;65733;-73
2023/10/17 03:35:22;;;;;;;10.20;4.90;;;;;;;5.37;73.11;100381.91;106848;1253;61249;-71
2023/10/17 03:37:49;;;;;;;9.40;5.40;;;;;;;5.39;73.05;100380.23;106937;1258;63835;-71
2023/10/17 03:40:19;;;;;;;6.60;4.70;;;;;;;5.40;73.10;100382.11;106905;1254;59586;-72
2023/10/17 03:42:53;;;;;;;6.30;4.80;;;;;;;5.42;73.28;100381.48;106922;1253;59279;-71
2023/10/17 03:45:26;;;;;;;7.00;4.90;;;;;;;5.46;73.41;100384.75;106924;1254;64426;-71
2023/10/17 03:47:56;;;;;;;7.00;5.40;;;;;;;5.50;73.41;100386.23;106976;1256;61181;-71
2023/10/17 03:50:31;;;;;;;6.20;4.40;;;;;;;5.53;73.45;100388.52;106922;1257;63728;-71
2023/10/17 03:53:07;;;;;;;10.30;4.80;;;;;;;5.57;73.46;100394.92;106900;1254;61250;-71
2023/10/17 03:55:42;;;;;;;7.70;5.00;;;;;;;5.59;73.47;100398.64;106931;1252;59586;-72
2023/10/17 04:01:10;;;;;;;8.60;5.60;;;;;;;5.64;73.39;100398.85;106653;1253;61372;-72
2023/10/17 04:03:37;;;;;;;10.60;5.10;;;;;;;5.66;73.47;100400.70;106897;1254;62510;-73
2023/10/17 04:08:48;;;;;;;7.30;4.80;;;;;;;5.69;73.41;100412.17;107001;1254;61231;-72
2023/10/17 04:13:51;;;;;;;7.00;5.10;;;;;;;5.72;73.40;100420.27;106943;1254;61176;-73
2023/10/17 04:16:22;;;;;;;7.70;5.10;;;;;;;5.73;73.39;100425.41;106705;1257;64697;-72
2023/10/17 04:18:59;;;;;;;7.90;5.50;;;;;;;5.76;73.48;100428.90;106926;1253;61240;-72
2023/10/17 04:21:30;;;;;;;8.20;5.40;;;;;;;5.79;73.49;100435.91;106945;1252;61141;-73
2023/10/17 04:24:04;;;;;;;7.00;5.40;;;;;;;5.82;73.50;100442.40;106775;1254;64606;-73
2023/10/17 04:26:35;;;;;;;8.30;5.10;;;;;;;5.84;73.41;100448.54;106974;1256;61245;-75
2023/10/17 04:29:21;;;;;;;6.80;5.20;;;;;;;5.86;73.44;100450.69;106912;1252;62437;-71
2023/10/17 04:31:56;;;;;;;9.20;5.00;;;;;;;5.89;73.35;100453.51;106910;1254;61390;-71
2023/10/17 04:34:26;;;;;;;9.30;6.00;;;;;;;5.90;73.26;100457.83;106950;1252;61269;-71
2023/10/17 04:36:56;;;;;;;10.70;6.50;;;;;;;5.90;73.22;100460.62;106929;1252;65980;-74
2023/10/17 04:44:21;;;;;;;6.90;5.20;;;;;;;5.90;73.04;100471.27;106929;1253;61276;-71
2023/10/17 04:49:26;;;;;;;8.70;5.90;;;;;;;5.90;73.14;100469.90;106927;1254;65668;-72
2023/10/17 04:52:06;;;;;;;8.10;5.40;;;;;;;5.90;73.14;100476.52;106965;1254;61077;-72
2023/10/17 04:57:06;;;;;;;8.00;6.30;;;;;;;5.93;73.07;100479.00;106980;1254;61298;-73
2023/10/17 05:00:09;;;;;;;10.50;7.00;;;;;;;5.93;73.09;100478.63;106926;1253;61320;-75
2023/10/17 06:17:33;;;;;;;8.40;6.10;;;;;;;7.21;70.33;100547.65;104408;1253;62670;-67
2023/10/17 06:20:03;;;;;;;8.20;5.80;;;;;;;7.28;70.11;100543.03;106915;1254;59335;-70
2023/10/17 06:28:25;;;;;;;11.30;6.80;;;;;;;7.43;69.18;100547.80;106376;1260;61114;-71
2023/10/17 06:33:42;;;;;;;9.40;4.90;;;;;;;7.56;68.53;100548.92;104390;1259;59752;-75
2023/10/17 06:36:16;;;;;;;6.00;4.90;;;;;;;7.58;68.07;100550.72;106923;1257;61406;-73
2023/10/17 06:38:46;;;;;;;7.90;4.70;;;;;;;7.58;67.86;100554.77;106850;1254;65799;-75
2023/10/17 06:41:16;;;;;;;6.40;4.70;;;;;;;7.60;67.68;100551.81;106895;1254;61292;-76
2023/10/17 06:43:49;;;;;;;8.00;4.90;;;;;;;7.67;67.80;100552.80;106951;1254;63787;-70
2023/10/17 06:46:28;;;;;;;7.90;4.90;;;;;;;7.78;67.70;100557.34;106964;1253;61231;-74
2023/10/17 06:49:07;;;;;;;6.30;4.70;;;;;;;7.86;67.14;100559.10;106904;1254;61227;-70
2023/10/17 06:51:49;;;;;;;7.00;4.50;;;;;;;7.92;67.06;100562.55;106979;1254;64462;-73
2023/10/17 06:54:24;;;;;;;8.80;5.00;;;;;;;7.99;66.83;100561.21;107059;1253;61167;-74
2023/10/17 06:56:55;;;;;;;7.60;4.30;;;;;;;8.01;66.24;100561.94;107002;1254;62532;-73
2023/10/17 06:59:24;;;;;;;13.60;10.20;;;;;;;8.04;65.89;100570.86;106915;1259;59340;-72
2023/10/17 07:02:10;;;;;;;7.70;6.30;;;;;;;8.09;65.83;100570.73;106926;1254;59846;-76
2023/10/17 07:04:38;;;;;;;6.60;4.50;;;;;;;8.16;65.57;100578.14;106932;1254;65799;-73
2023/10/17 07:07:06;;;;;;;5.40;3.80;;;;;;;8.25;65.20;100580.02;106916;1254;61340;-73
2023/10/17 07:09:37;;;;;;;7.80;4.40;;;;;;;8.31;64.82;100579.08;106949;1254;63804;-71
2023/10/17 07:12:06;;;;;;;10.80;4.10;;;;;;;8.37;64.74;100575.51;106939;1254;59579;-75
2023/10/17 07:14:37;;;;;;;9.20;5.20;;;;;;;8.47;64.74;100582.96;106929;1254;61318;-77
2023/10/17 07:20:01;;;;;;;6.10;3.90;;;;;;;8.62;63.45;100580.59;104535;1259;59710;-72
2023/10/17 07:22:35;;;;;;;16.20;4.50;;;;;;;8.62;62.92;100579.67;104581;1259;63692;-76
2023/10/17 07:25:14;;;;;;;8.70;4.10;;;;;;;8.65;63.09;100584.73;106957;1254;61285;-73
2023/10/17 07:27:44;;;;;;;4.60;3.40;;;;;;;8.67;62.80;100590.18;106930;1258;59394;-71
2023/10/17 07:30:13;;;;;;;7.00;3.80;;;;;;;8.68;62.60;100597.33;106943;1254;65959;-73
2023/10/17 07:32:48;;;;;;;5.30;3.10;;;;;;;8.66;62.00;100599.39;107036;1253;61422;-73
2023/10/17 07:35:22;;;;;;;9.40;3.70;;;;;;;8.62;61.49;100605.13;106979;1254;62534;-73
2023/10/17 07:37:55;;;;;;;12.00;6.80;;;;;;;8.57;61.10;100616.50;104762;1256;61292;-74
2023/10/17 07:40:35;;;;;;;9.20;3.00;;;;;;;8.57;60.74;100618.21;104507;1254;59777;-75
2023/10/17 07:43:09;;;;;;;8.20;3.10;;;;;;;8.65;60.41;100615.98;104455;1257;64602;-77
2023/10/17 07:45:56;;;;;;;8.60;2.60;;;;;;;8.76;59.93;100609.61;106941;1254;61313;-74
2023/10/17 07:48:26;;;;;;;4.30;2.60;;;;;;;8.85;59.89;100609.17;104511;1254;63729;-73
2023/10/17 07:50:54;;;;;;;5.20;2.60;;;;;;;8.96;59.68;100604.40;104572;1259;61176;-73
2023/10/17 07:53:22;;;;;;;17.60;2.80;;;;;;;9.10;59.29;100606.16;106987;1254;61137;-76
2023/10/17 07:56:03;;;;;;;8.40;2.80;;;;;;;9.28;58.98;100604.41;107018;1254;64448;-73
2023/10/17 07:58:45;;;;;;;21.10;3.30;;;;;;;9.44;58.95;100611.14;106981;1254;61161;-72
2023/10/17 08:01:16;;;;;;;27.40;3.30;;;;;;;9.62;58.85;100613.07;106921;1259;63778;-74
2023/10/17 08:03:57;;;;;;;10.90;2.80;;;;;;;9.80;58.56;100616.54;106909;1254;59675;-73
2023/10/17 08:06:29;;;;;;;4.60;2.70;;;;;;;9.90;57.96;100617.73;104313;1254;61259;-70
2023/10/17 08:08:59;;;;;;;7.50;2.80;;;;;;;9.91;57.22;100624.99;104580;1260;64443;-74
2023/10/17 08:11:27;;;;;;;4.00;2.50;;;;;;;9.80;56.71;100626.50;104564;1259;61291;-75
2023/10/17 08:13:56;;;;;;;5.20;2.90;;;;;;;9.65;56.51;100633.55;106757;1255;62745;-77
2023/10/17 08:16:28;;;;;;;4.90;3.30;;;;;;;9.51;56.78;100634.80;106917;1253;61174;-74
2023/10/17 08:27:17;;;;;;;4.20;2.10;;;;;;;9.68;54.42;100643.88;106730;1257;64174;-75
2023/10/17 08:30:05;;;;;;;3.00;1.70;;;;;;;9.70;53.74;100646.77;107153;1254;61314;-77
2023/10/17 08:32:47;;;;;;;2.80;1.60;;;;;;;9.67;53.49;100644.14;106947;1254;61260;-76
2023/10/17 08:35:20;;;;;;;3.20;1.90;;;;;;;9.67;53.07;100638.70;106938;1254;68194;-75
2023/10/17 08:37:49;;;;;;;5.70;1.80;;;;;;;9.68;53.14;100638.10;106952;1254;69225;-74
2023/10/17 08:40:32;;;;;;;3.20;1.90;;;;;;;9.72;53.06;100640.23;104557;1257;63761;-73
2023/10/17 08:43:01;;;;;;;3.30;1.60;;;;;;;9.81;53.33;100650.94;104412;1258;61517;-77
2023/10/17 08:45:36;;;;;;;4.00;1.70;;;;;;;9.88;53.42;100642.83;104615;1255;61028;-76
2023/10/17 08:48:06;;;;;;;6.80;1.50;;;;;;;9.90;52.99;100644.80;106970;1257;66156;-78
2023/10/17 08:50:37;;;;;;;2.90;1.80;;;;;;;9.95;53.03;100648.31;106955;1253;61228;-76
2023/10/17 08:55:48;;;;;;;5.10;1.50;;;;;;;10.16;52.73;100641.14;106741;1255;201338;-77
2023/10/17 08:58:17;;;;;;;5.40;2.10;;;;;;;10.18;52.38;100647.84;106779;1253;62245;-76
2023/10/17 09:03:23;;;;;;;15.30;2.30;;;;;;;9.99;52.20;100648.03;106852;1254;61292;-78
2023/10/17 09:08:55;;;;;;;3.10;1.40;;;;;;;9.87;51.40;100655.96;106936;1259;61272;-77
2023/10/17 09:11:29;;;;;;;5.60;1.70;;;;;;;9.79;51.24;100650.88;106954;1252;61414;-78
2023/10/17 09:16:50;;;;;;;2.40;1.20;;;;;;;9.88;51.73;100652.52;106926;1257;61097;-77
2023/10/17 09:19:21;;;;;;;4.70;1.60;;;;;;;10.03;51.37;100655.98;106898;1255;65764;-76
2023/10/17 09:21:50;;;;;;;20.10;2.50;;;;;;;10.02;50.81;100651.48;106929;1255;63815;-77
2023/10/17 09:24:37;;;;;;;9.20;6.80;;;;;;;9.98;51.45;100650.18;106830;1257;61154;-77
2023/10/17 09:27:06;;;;;;;10.30;3.70;;;;;;;10.04;51.81;100648.34;106977;1258;76662;-74
2023/10/17 09:29:43;;;;;;;9.80;2.30;;;;;;;10.12;51.81;100648.45;107169;1254;67804;-79
2023/10/17 09:32:11;;;;;;;32.60;2.80;;;;;;;10.18;51.69;100647.52;106936;1257;63821;-75
2023/10/17 09:34:40;;;;;;;4.30;1.80;;;;;;;10.18;51.41;100640.09;106953;1254;61626;-77
2023/10/17 09:37:12;;;;;;;5.60;1.60;;;;;;;10.18;51.22;100640.48;107021;1253;59268;-73
2023/10/17 09:39:46;;;;;;;6.50;1.70;;;;;;;10.19;50.94;100638.10;106934;1252;76735;-75
2023/10/17 09:42:15;;;;;;;6.10;1.70;;;;;;;10.20;50.88;100637.16;106758;1255;67429;-76
2023/10/17 09:44:43;;;;;;;3.60;1.50;;;;;;;10.24;51.16;100632.48;106872;1258;63784;-75
2023/10/17 09:47:14;;;;;;;2.20;1.50;;;;;;;10.38;51.54;100629.52;106879;1260;61228;-75
2023/10/17 09:49:45;;;;;;;5.70;1.70;;;;;;;10.59;51.90;100630.08;106819;1257;59795;-74
2023/10/17 09:52:14;;;;;;;7.60;1.60;;;;;;;10.80;50.79;100626.54;106911;1252;67806;-77
2023/10/17 09:54:41;;;;;;;2.70;1.10;;;;;;;10.88;48.99;100628.46;106902;1254;61307;-74
2023/10/17 09:57:14;;;;;;;2.70;1.30;;;;;;;10.93;48.52;100635.02;106882;1260;64769;-72
2023/10/17 09:59:46;;;;;;;2.50;1.30;;;;;;;11.09;49.15;100628.15;106918;1258;61272;-72
2023/10/17 10:02:13;;;;;;;2.80;1.20;;;;;;;11.34;48.46;100621.55;106688;1260;61195;-69
2023/10/17 10:04:41;;;;;;;2.90;1.20;;;;;;;11.59;47.46;100623.70;106862;1255;65755;-70
2023/10/17 10:07:22;;;;;;;2.10;1.20;;;;;;;11.79;46.75;100622.46;106729;1261;60507;-74
2023/10/17 10:09:49;;;;;;;2.70;1.40;;;;;;;11.98;46.21;100625.29;106899;1260;63697;-72
2023/10/17 10:12:17;;;;;;;2.90;1.60;;;;;;;12.12;45.63;100626.13;106721;1257;59839;-72
2023/10/17 10:14:47;;;;;;;4.40;1.90;;;;;;;12.20;44.67;100620.38;106911;1252;61385;-70
2023/10/17 10:17:14;;;;;;;2.50;1.50;;;;;;;12.18;45.02;100620.67;106954;1252;64440;-70
2023/10/17 10:19:43;;;;;;;2.40;1.40;;;;;;;12.14;44.82;100626.27;106945;1256;69042;-69
2023/10/17 10:22:12;;;;;;;3.40;1.50;;;;;;;11.99;44.75;100623.77;106930;1254;63658;-70
2023/10/17 10:24:41;;;;;;;7.30;3.30;;;;;;;11.90;45.10;100617.00;106976;1254;61462;-69
2023/10/17 10:29:40;;;;;;;5.00;2.00;;;;;;;12.15;45.35;100609.59;106959;1260;66798;-70
2023/10/17 10:32:28;;;;;;;2.80;1.70;;;;;;;12.42;46.13;100610.06;106956;1253;69132;-69
2023/10/17 10:34:55;;;;;;;2.80;1.70;;;;;;;12.80;46.25;100611.05;106873;1260;62547;-68
2023/10/17 10:37:23;;;;;;;6.80;5.00;;;;;;;13.08;45.24;100613.06;106847;1254;61315;-70
2023/10/17 10:40:24;;;;;;;5.10;2.80;;;;;;;13.27;45.06;100613.56;106918;1254;61160;-70
2023/10/17 10:42:54;;;;;;;7.60;4.30;;;;;;;13.23;43.76;100612.34;106862;1254;65720;-71
2023/10/17 10:45:49;;;;;;;4.50;1.80;;;;;;;13.04;42.93;100614.83;106975;1254;61929;-70
2023/10/17 10:48:17;;;;;;;2.90;1.40;;;;;;;12.84;42.43;100616.33;106920;1254;62467;-71
2023/10/17 10:50:47;;;;;;;2.60;1.40;;;;;;;12.75;42.57;100616.41;106856;1254;62201;-70
2023/10/17 10:53:35;;;;;;;2.50;1.30;;;;;;;12.80;42.27;100612.27;106851;1252;61090;-72
2023/10/17 10:56:09;;;;;;;3.30;1.50;;;;;;;12.91;42.60;100607.66;106746;1254;74972;-70
2023/10/17 10:58:51;;;;;;;2.80;1.40;;;;;;;13.01;41.88;100611.73;106980;1257;66906;-74
2023/10/17 11:01:20;;;;;;;2.00;1.40;;;;;;;12.96;40.96;100614.30;106939;1257;74310;-74
2023/10/17 11:03:49;;;;;;;2.20;1.30;;;;;;;12.95;41.77;100610.52;106878;1261;61688;-76
2023/10/17 11:06:23;;;;;;;3.10;1.40;;;;;;;13.00;42.02;100606.84;106965;1253;62183;-73
2023/10/17 11:08:51;;;;;;;4.80;1.50;;;;;;;13.00;42.31;100611.77;107028;1252;75879;-74
2023/10/17 11:11:22;;;;;;;2.70;1.40;;;;;;;12.97;41.44;100614.41;106951;1254;59901;-78
2023/10/17 11:13:50;;;;;;;5.40;1.70;;;;;;;12.75;41.23;100614.11;106888;1254;63714;-75
2023/10/17 11:16:19;;;;;;;5.30;1.80;;;;;;;12.50;41.32;100610.45;106903;1254;61168;-78
2023/10/17 11:18:47;;;;;;;3.70;1.30;;;;;;;12.40;41.22;100619.51;106947;1254;61179;-77
2023/10/17 11:21:17;;;;;;;3.10;1.30;;;;;;;12.37;40.92;100615.36;106953;1253;67944;-76
2023/10/17 11:23:59;;;;;;;3.80;1.60;;;;;;;12.29;41.36;100612.14;106946;1254;61273;-76
2023/10/17 11:26:29;;;;;;;3.30;1.60;;;;;;;12.34;42.35;100607.35;106948;1257;71752;-79
2023/10/17 11:28:57;;;;;;;35.70;3.90;;;;;;;12.59;42.85;100600.51;106935;1253;61224;-77
2023/10/17 11:31:25;;;;;;;4.40;2.80;;;;;;;13.01;43.19;100591.20;106941;1253;61219;-76
2023/10/17 11:33:59;;;;;;;11.00;8.50;;;;;;;13.50;42.30;100590.70;106777;1254;76808;-78
2023/10/17 11:36:35;;;;;;;3.20;2.00;;;;;;;13.81;41.04;100591.10;106947;1254;61352;-78
2023/10/17 11:39:08;;;;;;;3.40;2.00;;;;;;;14.03;40.16;100593.70;106878;1255;66034;-76
2023/10/17 11:41:53;;;;;;;12.00;7.80;;;;;;;14.12;39.78;100592.17;106948;1254;61353;-77
2023/10/17 11:44:25;;;;;;;2.40;1.50;;;;;;;14.21;39.33;100594.20;106849;1254;61237;-77
2023/10/17 11:46:58;;;;;;;3.50;1.60;;;;;;;14.29;39.19;100587.45;106860;1253;76842;-77
2023/10/17 11:49:32;;;;;;;3.20;1.40;;;;;;;14.36;39.17;100588.78;106896;1253;61308;-78
2023/10/17 11:52:05;;;;;;;2.70;1.50;;;;;;;14.46;38.67;100590.00;106768;1260;62769;-79
2023/10/17 11:54:33;;;;;;;2.50;1.50;;;;;;;14.51;37.84;100596.63;106914;1260;61365;-78
2023/10/17 11:57:16;;;;;;;2.60;1.30;;;;;;;14.54;37.21;100595.11;106869;1253;61281;-80
2023/10/17 12:02:47;;;;;;;3.80;1.80;;;;;;;14.57;37.96;100591.44;106626;1253;61251;-80
2023/10/17 12:05:19;;;;;;;2.80;1.60;;;;;;;14.69;37.97;100586.42;106998;1254;63679;-80
2023/10/17 12:07:57;;;;;;;2.50;1.30;;;;;;;14.82;38.18;100584.34;106938;1259;61398;-79
2023/10/17 12:10:25;;;;;;;2.80;1.60;;;;;;;14.93;37.72;100586.96;106969;1254;61109;-82
2023/10/17 12:12:58;;;;;;;4.20;1.60;;;;;;;15.03;37.74;100588.34;106945;1257;65700;-79
2023/10/17 12:15:26;;;;;;;4.00;1.90;;;;;;;15.23;37.77;100585.44;107003;1254;67993;-80
2023/10/17 12:17:54;;;;;;;2.80;1.30;;;;;;;15.51;37.20;100585.39;107244;1255;71186;-79
2023/10/17 12:20:25;;;;;;;2.90;1.30;;;;;;;15.63;35.92;100584.73;106919;1253;61230;-78
2023/10/17 12:22:55;;;;;;;4.10;1.50;;;;;;;15.41;35.22;100585.05;106940;1254;59533;-78
2023/10/17 12:25:23;;;;;;;4.70;2.00;;;;;;;14.97;35.71;100591.40;106806;1253;65803;-78
2023/10/17 12:27:52;;;;;;;2.20;1.50;;;;;;;14.63;36.76;100593.89;106871;1254;61268;-79
2023/10/17 12:30:27;;;;;;;2.40;1.30;;;;;;;14.53;36.99;100594.48;104635;1256;65873;-76
2023/10/17 12:32:55;;;;;;;2.60;1.60;;;;;;;14.59;37.82;100588.62;106899;1260;61221;-74
2023/10/17 12:35:27;;;;;;;2.40;1.30;;;;;;;14.90;38.06;100591.73;106907;1254;61176;-73
2023/10/17 12:38:06;;;;;;;4.40;1.50;;;;;;;15.25;37.65;100588.16;106931;1254;64511;-74
2023/10/17 12:40:33;;;;;;;2.60;1.50;;;;;;;15.66;36.90;100585.89;106905;1254;69199;-70
2023/10/17 12:43:01;;;;;;;2.90;2.40;;;;;;;15.94;36.39;100588.83;107561;1254;62460;-72
2023/10/17 12:45:30;;;;;;;5.50;3.80;;;;;;;16.04;34.87;100587.27;106840;1254;61230;-72
2023/10/17 12:47:58;;;;;;;3.90;2.10;;;;;;;15.99;35.04;100586.48;106918;1254;61205;-74
2023/10/17 12:50:25;;;;;;;2.80;1.60;;;;;;;15.98;34.65;100589.27;106885;1254;64489;-75
2023/10/17 12:52:53;;;;;;;1.90;1.40;;;;;;;15.92;34.73;100593.04;106756;1254;60634;-74
2023/10/17 12:55:20;;;;;;;2.70;1.40;;;;;;;15.87;34.71;100590.73;106883;1256;63818;-72
2023/10/17 12:57:48;;;;;;;2.50;1.30;;;;;;;15.94;34.81;100588.13;108740;1253;60740;-74
2023/10/17 13:00:17;;;;;;;2.30;1.20;;;;;;;16.11;34.74;100589.92;106889;1254;61327;-70
2023/10/17 13:02:44;;;;;;;1.80;1.20;;;;;;;16.33;33.94;100593.42;106874;1253;76873;-71
2023/10/17 13:05:14;;;;;;;7.00;5.90;;;;;;;16.48;33.37;100600.50;106707;1254;69406;-70
2023/10/17 13:07:42;;;;;;;3.30;1.70;;;;;;;16.48;32.90;100597.61;106901;1254;63706;-70
2023/10/17 13:10:12;;;;;;;2.20;1.20;;;;;;;16.28;32.80;100598.48;106758;1253;60461;-70
2023/10/17 13:12:39;;;;;;;6.00;1.60;;;;;;;16.19;33.19;100597.35;106888;1254;61157;-71
2023/10/17 13:15:08;;;;;;;4.10;1.50;;;;;;;16.25;34.17;100597.65;106811;1253;64883;-72
2023/10/17 13:17:37;;;;;;;3.40;1.60;;;;;;;16.41;34.09;100602.45;106907;1253;61295;-74
2023/10/17 13:20:09;;;;;;;2.50;1.50;;;;;;;16.54;33.47;100603.63;106892;1259;64878;-72
2023/10/17 13:22:53;;;;;;;2.90;1.50;;;;;;;16.50;33.10;100597.27;106858;1259;61183;-72
2023/10/17 13:25:21;;;;;;;3.10;1.40;;;;;;;16.46;33.21;100601.55;106888;1253;61238;-72
2023/10/17 13:27:49;;;;;;;3.00;1.40;;;;;;;16.42;33.01;100605.36;106894;1254;68022;-73
2023/10/17 13:30:22;;;;;;;2.30;1.50;;;;;;;16.38;32.58;100602.36;105917;1253;61110;-73
2023/10/17 13:32:55;;;;;;;2.70;1.40;;;;;;;16.37;32.54;100605.48;106831;1253;66017;-74
2023/10/17 13:35:23;;;;;;;2.50;1.30;;;;;;;16.43;33.07;100605.71;106822;1253;61333;-75
2023/10/17 13:37:54;;;;;;;2.30;1.30;;;;;;;16.53;33.05;100601.95;106908;1253;61867;-75
2023/10/17 13:40:25;;;;;;;3.30;1.20;;;;;;;16.64;32.93;100604.94;106887;1254;64503;-74
2023/10/17 13:42:53;;;;;;;2.10;1.30;;;;;;;16.77;32.75;100596.43;106860;1253;68238;-71
2023/10/17 13:45:21;;;;;;;3.00;1.90;;;;;;;16.81;32.41;100596.20;106873;1254;63716;-73
2023/10/17 13:47:49;;;;;;;3.20;2.20;;;;;;;16.73;32.32;100608.30;106688;1256;61269;-75
2023/10/17 13:50:18;;;;;;;2.80;1.90;;;;;;;16.56;32.07;100604.95;106931;1253;61420;-74
2023/10/17 13:52:46;;;;;;;2.60;1.70;;;;;;;16.43;31.88;100601.52;106920;1254;64582;-75
2023/10/17 13:55:27;;;;;;;7.30;4.50;;;;;;;16.35;31.92;100599.27;106925;1253;61208;-74
2023/10/17 13:58:04;;;;;;;7.60;4.90;;;;;;;16.32;32.22;100601.16;106914;1254;63760;-75
2023/10/17 14:03:22;;;;;;;3.40;1.40;;;;;;;16.41;32.34;100602.95;106684;1253;61206;-74
2023/10/17 14:05:51;;;;;;;2.80;1.50;;;;;;;16.45;32.32;100597.42;106920;1254;76700;-74
2023/10/17 14:08:22;;;;;;;2.20;1.40;;;;;;;16.43;32.07;100598.88;106815;1254;61295;-74
2023/10/17 14:10:49;;;;;;;1.90;1.30;;;;;;;16.36;32.14;100601.29;106932;1254;66066;-74
2023/10/17 14:13:18;;;;;;;4.80;1.50;;;;;;;16.29;32.59;100599.38;106962;1253;62181;-74
2023/10/17 14:15:45;;;;;;;2.10;1.20;;;;;;;16.26;32.38;100601.73;106925;1253;62169;-74
2023/10/17 14:18:13;;;;;;;2.80;1.30;;;;;;;16.14;31.75;100597.88;106962;1254;65783;-74